Time;durP1;ratioP1;P1;durP2;ratioP2;P2;SDS_P1;SDS_P2;PMS_P1;PMS_P2;Temp;Humidity;BMP_temperature;BMP_pressure;BME280_temperature;BME280_humidity;BME280_pressure;Samples;Min_cycle;Max_cycle;Signal;HPM_P1;HPM_P2
2023/03/03 00:00:07;;;;;;;77.30;29.05;;;;;;;-1.72;100.00;95921.00;1022412;28;20031;-67
2023/03/03 00:00:40;;;;;;;84.94;29.22;;;;;;;-1.82;100.00;95908.41;1018641;29;20028;-67
2023/03/03 00:01:11;;;;;;;78.60;27.73;;;;;;;-1.78;100.00;95925.06;1014119;29;20634;-66
2023/03/03 00:01:41;;;;;;;76.57;28.35;;;;;;;-1.79;100.00;95922.69;1014004;29;20027;-67
2023/03/03 00:02:12;;;;;;;72.78;28.27;;;;;;;-2.27;100.00;95848.59;1011138;29;20079;-66
2023/03/03 00:02:42;;;;;;;84.35;28.63;;;;;;;-1.82;100.00;95921.28;1014859;29;20028;-67
2023/03/03 00:03:19;;;;;;;86.15;28.42;;;;;;;-1.87;100.00;95921.03;1022866;28;20030;-67
2023/03/03 00:03:50;;;;;;;85.92;29.28;;;;;;;-1.84;100.00;95932.75;1018359;29;20410;-66
2023/03/03 00:04:20;;;;;;;82.90;30.33;;;;;;;-1.86;100.00;95929.53;1014656;29;20012;-66
2023/03/03 00:04:51;;;;;;;80.68;28.63;;;;;;;-1.89;100.00;95922.97;1014757;29;20020;-66
2023/03/03 00:05:42;;;;;;;89.35;30.10;;;;;;;-1.89;100.00;95925.53;1014985;28;20020;-67
2023/03/03 00:06:13;;;;;;;83.28;29.80;;;;;;;-1.96;100.00;95920.31;1024887;28;20587;-67
2023/03/03 00:06:44;;;;;;;83.00;28.90;;;;;;;-1.94;100.00;95926.09;1026489;28;20019;-66
2023/03/03 00:07:21;;;;;;;90.60;30.96;;;;;;;-1.95;100.00;95923.69;1026462;28;20046;-66
2023/03/03 00:07:52;;;;;;;83.32;28.98;;;;;;;-2.06;100.00;95914.66;1027409;28;20381;-66
2023/03/03 00:08:22;;;;;;;82.13;30.67;;;;;;;-2.05;100.00;95905.16;1021883;28;20556;-68
2023/03/03 00:08:53;;;;;;;94.63;32.70;;;;;;;-1.99;100.00;95920.69;1018645;29;20039;-68
2023/03/03 00:09:23;;;;;;;83.22;29.27;;;;;;;-1.98;100.00;95921.47;1013881;29;20716;-64
2023/03/03 00:09:54;;;;;;;78.07;29.30;;;;;;;-1.97;100.00;95923.09;1014656;29;20087;-67
2023/03/03 00:10:24;;;;;;;89.30;30.52;;;;;;;-2.00;100.00;95920.88;1017654;29;20031;-69
2023/03/03 00:10:55;;;;;;;85.55;30.65;;;;;;;-1.97;100.00;95923.09;1018693;29;20024;-68
2023/03/03 00:11:25;;;;;;;83.53;30.35;;;;;;;-1.99;100.00;95919.88;1022405;29;20038;-67
2023/03/03 00:11:56;;;;;;;93.35;29.35;;;;;;;-2.01;100.00;95916.69;1018534;29;20034;-67
2023/03/03 00:12:29;;;;;;;86.78;28.10;;;;;;;-2.09;100.00;95907.31;1018413;29;20042;-67
2023/03/03 00:12:59;;;;;;;86.28;29.48;;;;;;;-2.01;100.00;95916.69;1014694;29;20055;-66
2023/03/03 00:13:32;;;;;;;87.18;30.13;;;;;;;-2.04;100.00;95911.94;1015553;29;20024;-69
2023/03/03 00:14:22;;;;;;;95.66;30.36;;;;;;;-2.05;100.00;95916.25;1022362;29;20437;-67
2023/03/03 00:14:53;;;;;;;96.24;30.72;;;;;;;-2.14;100.00;95907.06;1014597;29;20082;-68
2023/03/03 00:15:24;;;;;;;90.20;30.50;;;;;;;-2.17;100.00;95899.72;1022276;28;20404;-66
2023/03/03 00:15:54;;;;;;;91.38;29.00;;;;;;;-2.10;100.00;95912.63;1018579;29;20133;-68
2023/03/03 00:16:28;;;;;;;94.80;31.80;;;;;;;-2.14;100.00;95918.13;1022284;29;20032;-67
2023/03/03 00:17:02;;;;;;;85.76;29.16;;;;;;;-2.18;100.00;95911.75;1022060;28;20023;-69
2023/03/03 00:17:32;;;;;;;89.86;30.14;;;;;;;-2.13;100.00;95918.94;1022221;29;20039;-69
2023/03/03 00:18:11;;;;;;;91.80;30.65;;;;;;;-2.06;100.00;95916.44;1022496;29;20027;-67
2023/03/03 00:18:46;;;;;;;108.84;32.70;;;;;;;-2.05;100.00;95915.47;1018217;29;20031;-68
2023/03/03 00:19:17;;;;;;;97.00;30.52;;;;;;;-2.02;100.00;95921.03;1017762;29;20522;-68
2023/03/03 00:19:48;;;;;;;94.28;31.02;;;;;;;-2.03;100.00;95918.66;1018434;29;20358;-66
2023/03/03 00:20:32;;;;;;;103.32;31.77;;;;;;;-2.03;100.00;95918.66;1018107;29;20370;-68
2023/03/03 00:21:04;;;;;;;98.52;30.16;;;;;;;-2.07;100.00;95917.44;1020566;29;20055;-66
2023/03/03 00:21:47;;;;;;;92.25;30.83;;;;;;;-2.09;100.00;95909.09;1016367;29;20042;-69
2023/03/03 00:22:35;;;;;;;98.90;31.15;;;;;;;-2.18;100.00;95900.66;1020984;28;20042;-69
2023/03/03 00:23:13;;;;;;;94.93;31.10;;;;;;;-2.11;100.00;95911.03;1018540;29;20446;-68
2023/03/03 00:23:43;;;;;;;93.62;29.88;;;;;;;-2.13;100.00;95912.00;1018400;29;20024;-68
2023/03/03 00:24:16;;;;;;;90.90;30.10;;;;;;;-2.10;100.00;95916.00;1023865;28;20031;-66
2023/03/03 00:24:48;;;;;;;107.80;30.88;;;;;;;-2.05;100.00;95913.69;1027546;28;20031;-70
2023/03/03 00:25:24;;;;;;;91.03;31.05;;;;;;;-2.05;100.00;95911.09;1030160;28;20758;-65
2023/03/03 00:25:55;;;;;;;97.63;32.17;;;;;;;-2.11;100.00;95909.28;1026390;28;20011;-68
2023/03/03 00:26:37;;;;;;;97.63;32.08;;;;;;;-2.03;100.00;95918.66;1018492;29;20556;-68
2023/03/03 00:27:28;;;;;;;103.84;30.88;;;;;;;-2.09;100.00;95920.16;1019246;28;20844;-68
2023/03/03 00:28:06;;;;;;;86.78;29.83;;;;;;;-2.16;100.00;95911.56;1015153;29;20022;-69
2023/03/03 00:28:42;;;;;;;89.00;30.35;;;;;;;-2.16;100.00;95909.78;1018223;29;20024;-68
2023/03/03 00:29:39;;;;;;;97.32;30.84;;;;;;;-2.15;100.00;95913.97;1013860;29;20016;-66
2023/03/03 00:30:25;;;;;;;94.10;33.72;;;;;;;-2.22;100.00;95912.28;1018710;29;20038;-67
2023/03/03 00:31:00;;;;;;;99.57;31.48;;;;;;;-2.25;100.00;95912.63;1019675;29;20382;-68
2023/03/03 00:31:34;;;;;;;109.98;30.68;;;;;;;-2.16;100.00;95916.72;1022297;29;20015;-70
2023/03/03 00:32:13;;;;;;;90.52;30.46;;;;;;;-2.17;100.00;95912.56;1019110;28;20024;-65
2023/03/03 00:32:49;;;;;;;95.47;31.30;;;;;;;-2.24;100.00;95903.97;1026841;28;20019;-65
2023/03/03 00:33:33;;;;;;;93.72;30.15;;;;;;;-2.24;100.00;95909.91;1022384;29;20687;-67
2023/03/03 00:34:24;;;;;;;97.60;31.38;;;;;;;-2.21;100.00;95916.47;1016519;29;20063;-68
2023/03/03 00:34:59;;;;;;;95.03;31.10;;;;;;;-2.21;100.00;95911.31;1013105;29;20837;-68
2023/03/03 00:35:34;;;;;;;97.85;32.17;;;;;;;-2.25;100.00;95905.72;1013404;29;20410;-67
2023/03/03 00:36:09;;;;;;;96.03;31.35;;;;;;;-2.31;100.00;95900.50;1006702;29;20387;-68
2023/03/03 00:36:40;;;;;;;91.50;28.88;;;;;;;-2.30;100.00;95905.47;1012199;29;20020;-67
2023/03/03 00:37:26;;;;;;;99.33;32.83;;;;;;;-2.25;100.00;95910.84;1019303;28;20521;-69
2023/03/03 00:37:58;;;;;;;96.75;30.90;;;;;;;-2.22;100.00;95920.00;1014470;29;20068;-68
2023/03/03 00:38:29;;;;;;;100.75;31.83;;;;;;;-2.35;100.00;95900.06;1014506;29;20028;-69
2023/03/03 00:39:16;;;;;;;109.20;33.00;;;;;;;-2.31;100.00;95908.19;1018289;29;20569;-66
2023/03/03 00:39:47;;;;;;;86.40;29.90;;;;;;;-2.28;100.00;95910.41;1020722;29;20020;-68
2023/03/03 00:40:25;;;;;;;101.43;31.90;;;;;;;-2.30;100.00;95908.03;1024594;28;20020;-68
2023/03/03 00:40:55;;;;;;;112.95;35.30;;;;;;;-2.33;100.00;95912.75;1022091;29;20445;-67
2023/03/03 00:41:26;;;;;;;103.20;30.92;;;;;;;-2.27;100.00;95902.53;1024241;28;20059;-68
2023/03/03 00:41:57;;;;;;;100.85;31.50;;;;;;;-2.06;100.00;95906.94;1022353;29;20035;-65
2023/03/03 00:42:27;;;;;;;109.50;34.08;;;;;;;-1.99;100.00;95909.59;1022166;28;20195;-65
2023/03/03 00:42:58;;;;;;;103.97;33.75;;;;;;;-1.95;100.00;95913.41;1018401;29;20051;-66
2023/03/03 00:43:33;;;;;;;98.14;33.84;;;;;;;-1.90;100.00;95923.97;1014078;29;20119;-67
2023/03/03 00:44:30;;;;;;;102.70;33.98;;;;;;;-1.85;100.00;95919.06;1016149;28;20038;-67
2023/03/03 00:45:00;;;;;;;98.97;31.50;;;;;;;-1.86;100.00;95914.91;1022528;28;20380;-68
2023/03/03 00:45:37;;;;;;;111.13;32.23;;;;;;;-1.81;100.00;95920.31;1022036;29;20047;-67
2023/03/03 00:46:07;;;;;;;98.72;31.88;;;;;;;-2.00;100.00;95903.66;1018361;29;20019;-66
2023/03/03 00:46:38;;;;;;;104.90;32.23;;;;;;;-1.96;100.00;95911.81;1022226;29;20148;-68
2023/03/03 00:47:28;;;;;;;93.20;30.77;;;;;;;-1.89;100.00;95917.84;1026372;28;20429;-68
2023/03/03 00:47:59;;;;;;;100.55;30.98;;;;;;;-1.92;100.00;95920.75;1029085;28;20121;-67
2023/03/03 00:48:30;;;;;;;98.17;31.47;;;;;;;-1.98;100.00;95917.16;1022344;29;20544;-68
2023/03/03 00:49:01;;;;;;;92.32;32.02;;;;;;;-2.01;100.00;95921.81;1022336;29;20023;-67
2023/03/03 00:49:32;;;;;;;98.43;32.87;;;;;;;-1.99;100.00;95915.53;1013626;29;20032;-68
2023/03/03 00:50:05;;;;;;;96.32;33.32;;;;;;;-1.97;100.00;95921.31;1014589;29;20051;-67
2023/03/03 00:50:35;;;;;;;96.40;31.42;;;;;;;-1.99;100.00;95919.88;1018240;29;20031;-68
2023/03/03 00:51:28;;;;;;;83.17;31.30;;;;;;;-2.06;100.00;95921.59;1015500;29;20024;-67
2023/03/03 00:51:59;;;;;;;92.30;30.33;;;;;;;-2.03;100.00;95916.09;1021673;29;20046;-69
2023/03/03 00:52:29;;;;;;;99.77;32.70;;;;;;;-2.15;100.00;95908.00;1018365;29;20404;-69
2023/03/03 00:53:27;;;;;;;89.97;30.40;;;;;;;-2.08;100.00;95919.19;1026055;28;20023;-66
2023/03/03 00:53:58;;;;;;;93.53;31.08;;;;;;;-2.10;100.00;95918.56;1019443;29;20428;-66
2023/03/03 00:54:28;;;;;;;89.72;29.10;;;;;;;-2.06;100.00;95921.59;1022172;29;20054;-69
2023/03/03 00:54:59;;;;;;;98.43;32.13;;;;;;;-2.08;100.00;95918.38;1010338;29;20416;-67
2023/03/03 00:55:29;;;;;;;96.28;31.90;;;;;;;-2.19;100.00;95910.16;1010429;29;20364;-66
2023/03/03 00:56:00;;;;;;;97.43;31.42;;;;;;;-2.15;100.00;95908.84;1014151;29;20026;-66
2023/03/03 00:56:30;;;;;;;94.00;30.87;;;;;;;-2.08;100.00;95915.81;1014245;29;20039;-65
2023/03/03 00:57:01;;;;;;;87.20;30.60;;;;;;;-2.14;100.00;95917.34;1022260;29;20035;-66
2023/03/03 00:57:31;;;;;;;100.30;32.83;;;;;;;-2.20;100.00;95903.41;1022125;29;20034;-66
2023/03/03 00:58:02;;;;;;;101.75;33.83;;;;;;;-2.19;100.00;95907.56;1022161;29;20023;-67
2023/03/03 00:58:33;;;;;;;96.25;28.92;;;;;;;-2.14;100.00;95913.00;1017959;28;20525;-68
2023/03/03 00:59:03;;;;;;;93.90;33.00;;;;;;;-2.13;100.00;95913.78;1016760;29;20031;-67
2023/03/03 00:59:34;;;;;;;94.80;31.47;;;;;;;-2.14;100.00;95907.84;1017594;29;20040;-68
2023/03/03 01:00:05;;;;;;;108.68;32.55;;;;;;;-2.14;100.00;95912.19;1020404;28;20028;-66
2023/03/03 01:00:35;;;;;;;102.00;31.90;;;;;;;-2.14;100.00;95918.13;1026235;28;20029;-67
2023/03/03 01:01:06;;;;;;;100.75;32.08;;;;;;;-2.15;100.00;95913.97;1022274;29;20890;-67
2023/03/03 01:01:36;;;;;;;94.35;31.10;;;;;;;-2.19;100.00;95906.78;1022263;28;20039;-67
2023/03/03 01:02:07;;;;;;;94.23;31.60;;;;;;;-2.19;100.00;95915.28;1018082;29;20036;-67
2023/03/03 01:02:37;;;;;;;98.90;32.05;;;;;;;-2.20;100.00;95918.06;1010502;29;20068;-66
2023/03/03 01:03:11;;;;;;;95.75;31.17;;;;;;;-2.20;100.00;95912.91;1014391;29;20020;-68
2023/03/03 01:03:42;;;;;;;96.98;31.50;;;;;;;-2.22;100.00;95920.78;1018580;29;20047;-68
2023/03/03 01:04:12;;;;;;;97.03;31.05;;;;;;;-2.23;100.00;95919.19;1018937;28;20036;-66
2023/03/03 01:04:44;;;;;;;95.97;30.42;;;;;;;-2.22;100.00;95920.78;1021651;29;20577;-68
2023/03/03 01:05:15;;;;;;;105.50;34.38;;;;;;;-2.29;100.00;95909.63;1018324;29;20040;-66
2023/03/03 01:05:46;;;;;;;89.32;31.36;;;;;;;-2.29;100.00;95912.19;1022175;28;20037;-67
2023/03/03 01:06:17;;;;;;;87.00;30.27;;;;;;;-2.26;100.00;95914.41;1022072;29;20925;-65
2023/03/03 01:06:48;;;;;;;97.73;31.37;;;;;;;-2.26;100.00;95919.56;1022060;28;20039;-68
2023/03/03 01:07:18;;;;;;;88.80;31.85;;;;;;;-2.23;100.00;95926.13;1014826;29;20127;-66
2023/03/03 01:07:49;;;;;;;93.82;31.08;;;;;;;-2.33;100.00;95908.38;1022368;28;20039;-66
2023/03/03 01:08:21;;;;;;;90.90;31.55;;;;;;;-2.27;100.00;95915.41;1021934;28;20588;-69
2023/03/03 01:08:51;;;;;;;93.94;32.72;;;;;;;-2.30;100.00;95918.31;1018501;29;20446;-67
2023/03/03 01:09:22;;;;;;;102.10;32.08;;;;;;;-2.28;100.00;95915.56;1021702;29;20046;-68
2023/03/03 01:09:52;;;;;;;95.47;32.47;;;;;;;-2.31;100.00;95916.72;1021972;29;20114;-68
2023/03/03 01:10:23;;;;;;;93.55;31.92;;;;;;;-2.31;100.00;95919.31;1024670;28;20034;-66
2023/03/03 01:10:55;;;;;;;85.13;30.48;;;;;;;-2.32;100.00;95917.69;1022109;29;20022;-68
2023/03/03 01:11:27;;;;;;;94.22;30.90;;;;;;;-2.28;100.00;95915.56;1006535;29;20044;-68
2023/03/03 01:11:57;;;;;;;95.88;32.35;;;;;;;-2.26;100.00;95914.41;1008351;29;20021;-66
2023/03/03 01:12:28;;;;;;;95.80;32.10;;;;;;;-2.22;100.00;95912.28;1013827;29;20032;-67
2023/03/03 01:12:58;;;;;;;98.07;30.83;;;;;;;-2.28;100.00;95911.25;1013910;29;20028;-66
2023/03/03 01:13:30;;;;;;;109.13;30.92;;;;;;;-2.27;100.00;95912.81;1018674;28;20197;-68
2023/03/03 01:14:01;;;;;;;106.20;33.97;;;;;;;-2.28;100.00;95918.94;1026044;28;20085;-67
2023/03/03 01:14:31;;;;;;;102.13;30.35;;;;;;;-2.29;100.00;95908.84;1022372;28;20433;-67
2023/03/03 01:15:02;;;;;;;102.63;31.77;;;;;;;-2.30;100.00;95917.53;1022008;29;20034;-66
2023/03/03 01:15:32;;;;;;;98.53;31.20;;;;;;;-2.30;100.00;95913.19;1018646;29;20034;-66
2023/03/03 01:16:03;;;;;;;108.75;34.28;;;;;;;-2.36;100.00;95908.75;1022506;28;20101;-65
2023/03/03 01:16:34;;;;;;;104.47;30.75;;;;;;;-2.34;100.00;95906.81;1022517;28;20023;-69
2023/03/03 01:17:04;;;;;;;108.75;34.03;;;;;;;-2.38;100.00;95903.00;1018848;29;20026;-68
2023/03/03 01:17:35;;;;;;;101.88;32.85;;;;;;;-2.41;100.00;95900.78;1014994;29;20683;-66
2023/03/03 01:18:06;;;;;;;86.00;31.03;;;;;;;-2.36;100.00;95913.88;1018920;29;20110;-65
2023/03/03 01:18:36;;;;;;;94.06;31.56;;;;;;;-2.43;100.00;95898.38;1022465;28;20023;-68
2023/03/03 01:19:07;;;;;;;103.82;31.83;;;;;;;-2.43;100.00;95913.00;1019293;29;20020;-66
2023/03/03 01:19:37;;;;;;;100.93;31.53;;;;;;;-2.40;100.00;95908.31;1010242;29;20031;-66
2023/03/03 01:20:09;;;;;;;90.17;30.27;;;;;;;-2.42;100.00;95909.44;1011455;29;20024;-67
2023/03/03 01:20:40;;;;;;;96.07;30.00;;;;;;;-2.47;100.00;95886.06;1018784;29;20341;-64
2023/03/03 01:21:10;;;;;;;96.80;31.02;;;;;;;-2.34;100.00;95901.66;1022532;29;20028;-67
2023/03/03 01:21:41;;;;;;;103.72;31.08;;;;;;;-2.35;100.00;95907.75;1022633;28;20032;-67
2023/03/03 01:22:11;;;;;;;100.25;31.45;;;;;;;-2.33;100.00;95887.84;1026167;28;20019;-64
2023/03/03 01:22:42;;;;;;;100.50;32.78;;;;;;;-2.18;100.00;95892.94;1026135;28;20027;-67
2023/03/03 01:23:12;;;;;;;96.07;33.50;;;;;;;-2.15;100.00;95887.44;1022218;29;20522;-68
2023/03/03 01:23:43;;;;;;;100.30;32.43;;;;;;;-2.03;100.00;95908.38;1021967;28;20126;-68
2023/03/03 01:24:13;;;;;;;105.40;31.92;;;;;;;-1.92;100.00;95902.75;1014151;29;20032;-67
2023/03/03 01:24:44;;;;;;;112.73;32.87;;;;;;;-1.95;100.00;95903.91;1014502;29;20031;-67
2023/03/03 01:25:14;;;;;;;100.93;33.37;;;;;;;-1.90;100.00;95908.53;1021969;28;20023;-68
2023/03/03 01:25:44;;;;;;;106.75;35.10;;;;;;;-1.93;100.00;95901.19;1018152;28;20020;-66
2023/03/03 01:26:15;;;;;;;99.60;32.55;;;;;;;-2.01;100.00;95896.94;1026244;28;20038;-67
2023/03/03 01:26:46;;;;;;;104.33;35.57;;;;;;;-1.95;100.00;95905.69;1026215;28;20527;-66
2023/03/03 01:27:16;;;;;;;105.68;32.25;;;;;;;-1.92;100.00;95900.97;1024018;28;20082;-69
2023/03/03 01:27:47;;;;;;;107.07;33.77;;;;;;;-1.81;100.00;95892.03;1022159;29;20075;-65
2023/03/03 01:28:17;;;;;;;100.83;31.60;;;;;;;-1.70;100.00;95899.25;1018111;29;20036;-66
2023/03/03 01:28:48;;;;;;;108.30;34.10;;;;;;;-1.67;100.00;95904.03;1021984;28;20031;-65
2023/03/03 01:29:18;;;;;;;102.77;34.80;;;;;;;-1.69;100.00;95890.56;1021496;29;20414;-66
2023/03/03 01:29:48;;;;;;;102.53;33.35;;;;;;;-1.66;100.00;95897.91;1021868;29;20023;-66
2023/03/03 01:30:19;;;;;;;100.30;32.42;;;;;;;-1.66;100.00;95900.47;1021991;29;20065;-67
2023/03/03 01:30:49;;;;;;;97.18;31.63;;;;;;;-1.62;100.00;95894.97;1018082;29;20027;-69
2023/03/03 01:31:20;;;;;;;102.57;34.88;;;;;;;-1.74;100.00;95887.75;1018152;29;20035;-66
2023/03/03 01:31:50;;;;;;;105.38;32.50;;;;;;;-1.62;100.00;95895.78;1022031;29;20031;-68
2023/03/03 01:32:22;;;;;;;99.90;31.55;;;;;;;-1.63;100.00;95893.41;1022041;28;20148;-67
2023/03/03 01:32:52;;;;;;;97.42;31.02;;;;;;;-1.68;100.00;95881.06;1022008;29;20027;-67
2023/03/03 01:33:23;;;;;;;100.35;32.22;;;;;;;-1.67;100.00;95883.47;1022267;28;20027;-67
2023/03/03 01:33:53;;;;;;;88.50;31.23;;;;;;;-1.55;100.00;95891.47;1026333;28;20098;-67
2023/03/03 01:34:24;;;;;;;96.50;31.30;;;;;;;-1.56;100.00;95895.03;1022235;29;20038;-68
2023/03/03 01:34:54;;;;;;;97.03;31.90;;;;;;;-1.55;100.00;95894.06;1018042;29;20474;-67
2023/03/03 01:35:25;;;;;;;92.63;31.38;;;;;;;-1.58;100.00;95886.69;1014298;29;20036;-67
2023/03/03 01:35:55;;;;;;;95.40;30.98;;;;;;;-1.50;100.00;95894.31;1013280;29;20442;-68
2023/03/03 01:36:26;;;;;;;96.95;33.13;;;;;;;-1.51;100.00;95894.50;1010612;29;20043;-67
2023/03/03 01:36:57;;;;;;;102.75;32.25;;;;;;;-1.60;100.00;95887.88;1012640;29;20031;-67
2023/03/03 01:37:27;;;;;;;94.78;31.45;;;;;;;-1.55;100.00;95900.97;1025918;28;20676;-68
2023/03/03 01:37:58;;;;;;;90.88;29.63;;;;;;;-1.66;100.00;95897.91;1026034;28;20065;-66
2023/03/03 01:38:28;;;;;;;97.07;32.65;;;;;;;-1.68;100.00;95893.91;1026291;28;20037;-68
2023/03/03 01:38:59;;;;;;;93.80;31.50;;;;;;;-1.70;100.00;95890.75;1017887;29;20035;-67
2023/03/03 01:39:29;;;;;;;98.57;31.60;;;;;;;-1.62;100.00;95900.13;1017389;29;20067;-67
2023/03/03 01:40:00;;;;;;;99.72;32.75;;;;;;;-1.63;100.00;95893.41;1018104;29;20018;-68
2023/03/03 01:40:30;;;;;;;96.28;31.77;;;;;;;-1.60;100.00;95903.31;1018195;29;20099;-66
2023/03/03 01:41:01;;;;;;;98.70;32.40;;;;;;;-1.58;100.00;95891.06;1022014;28;20023;-68
2023/03/03 01:41:34;;;;;;;95.85;33.83;;;;;;;-1.52;100.00;95900.63;1021944;29;20023;-68
2023/03/03 01:42:05;;;;;;;98.02;31.30;;;;;;;-1.50;100.00;95903.81;1014703;29;20031;-67
2023/03/03 01:42:35;;;;;;;92.70;31.38;;;;;;;-1.47;100.00;95903.47;1018110;29;20023;-67
2023/03/03 01:43:06;;;;;;;101.30;31.95;;;;;;;-1.46;100.00;95905.03;1026184;28;20019;-67
2023/03/03 01:43:42;;;;;;;90.55;31.40;;;;;;;-1.51;100.00;95909.94;1026132;28;20089;-68
2023/03/03 01:44:13;;;;;;;96.12;32.26;;;;;;;-1.47;100.00;95901.69;1021892;28;20024;-67
2023/03/03 01:44:44;;;;;;;90.10;31.44;;;;;;;-1.46;100.00;95899.91;1022066;29;20042;-66
2023/03/03 01:45:24;;;;;;;90.10;30.67;;;;;;;-1.48;100.00;95907.78;1021980;29;20026;-69
2023/03/03 01:45:57;;;;;;;94.18;30.35;;;;;;;-1.50;100.00;95903.81;1017841;29;20043;-65
2023/03/03 01:46:54;;;;;;;83.98;28.94;;;;;;;-1.49;100.00;95901.06;1012021;29;20032;-69
2023/03/03 01:47:27;;;;;;;89.94;28.62;;;;;;;-1.55;100.00;95898.41;1021124;29;20040;-67
2023/03/03 01:48:05;;;;;;;82.90;29.92;;;;;;;-1.51;100.00;95902.22;1022335;28;20784;-66
2023/03/03 01:48:42;;;;;;;86.47;29.70;;;;;;;-1.54;100.00;95903.38;1026075;28;20023;-68
2023/03/03 01:49:18;;;;;;;83.60;29.28;;;;;;;-1.58;100.00;95901.34;1021468;29;20027;-64
2023/03/03 01:49:59;;;;;;;92.68;30.08;;;;;;;-1.58;100.00;95901.34;1020180;29;20019;-67
2023/03/03 01:50:33;;;;;;;94.93;29.75;;;;;;;-1.65;100.00;95891.00;1018198;29;20045;-68
2023/03/03 01:51:24;;;;;;;84.57;29.58;;;;;;;-1.66;100.00;95897.13;1026047;28;20069;-66
2023/03/03 01:52:00;;;;;;;94.05;30.77;;;;;;;-1.57;100.00;95908.91;1014093;29;20020;-67
2023/03/03 01:52:36;;;;;;;89.22;28.63;;;;;;;-1.61;100.00;95899.13;1014237;29;20036;-67
2023/03/03 01:53:11;;;;;;;89.26;30.48;;;;;;;-1.62;100.00;95906.06;1014119;29;20442;-66
2023/03/03 01:53:43;;;;;;;91.96;29.72;;;;;;;-1.64;100.00;95896.94;1022076;29;20030;-67
2023/03/03 01:54:27;;;;;;;96.93;32.97;;;;;;;-1.71;100.00;95896.84;1017995;29;20637;-67
2023/03/03 01:55:00;;;;;;;84.94;29.00;;;;;;;-1.66;100.00;95905.63;1017980;29;20031;-68
2023/03/03 01:55:34;;;;;;;89.24;29.08;;;;;;;-1.60;100.00;95898.97;1022093;29;20106;-66
2023/03/03 01:56:05;;;;;;;96.03;30.85;;;;;;;-1.59;100.00;95904.91;1022032;29;20128;-66
2023/03/03 01:56:35;;;;;;;89.10;30.78;;;;;;;-1.58;100.00;95903.91;1021828;28;20516;-66
2023/03/03 01:57:10;;;;;;;95.13;28.55;;;;;;;-1.59;100.00;95903.13;1022203;29;20023;-68
2023/03/03 01:57:43;;;;;;;95.48;31.40;;;;;;;-1.57;100.00;95898.59;1022799;28;20035;-69
2023/03/03 01:58:16;;;;;;;90.44;30.02;;;;;;;-1.54;100.00;95903.38;1022839;28;20023;-67
2023/03/03 01:58:57;;;;;;;96.25;32.13;;;;;;;-1.51;100.00;95899.63;1021113;29;20027;-65
2023/03/03 01:59:30;;;;;;;85.75;30.60;;;;;;;-1.60;100.00;95896.41;1017174;29;20099;-64
2023/03/03 02:00:01;;;;;;;105.82;32.45;;;;;;;-1.55;100.00;95901.78;1014073;29;20028;-66
2023/03/03 02:00:32;;;;;;;101.67;31.37;;;;;;;-1.55;100.00;95906.13;1017950;29;20141;-65
2023/03/03 02:01:07;;;;;;;86.90;30.27;;;;;;;-1.60;100.00;95903.31;1022121;29;20022;-66
2023/03/03 02:01:38;;;;;;;96.43;31.38;;;;;;;-1.60;100.00;95898.19;1018002;29;20031;-68
2023/03/03 02:02:08;;;;;;;92.60;30.23;;;;;;;-1.57;100.00;95908.91;1018138;29;20038;-66
2023/03/03 02:02:39;;;;;;;91.77;31.70;;;;;;;-1.57;100.00;95908.09;1018000;29;20162;-67
2023/03/03 02:03:10;;;;;;;92.40;30.40;;;;;;;-1.61;100.00;95906.84;1018167;29;20059;-67
2023/03/03 02:03:41;;;;;;;91.83;31.53;;;;;;;-1.60;100.00;95905.91;1014135;29;20024;-66
2023/03/03 02:04:11;;;;;;;85.50;30.73;;;;;;;-1.63;100.00;95899.34;1017780;29;20080;-66
2023/03/03 02:04:42;;;;;;;90.60;29.02;;;;;;;-1.69;100.00;95894.91;1022036;29;20027;-66
2023/03/03 02:05:14;;;;;;;85.15;30.27;;;;;;;-1.60;100.00;95909.25;1022004;28;20065;-67
2023/03/03 02:05:44;;;;;;;82.23;29.57;;;;;;;-1.65;100.00;95901.28;1018178;29;20054;-65
2023/03/03 02:06:16;;;;;;;84.27;30.33;;;;;;;-1.66;100.00;95900.47;1018073;29;20035;-67
2023/03/03 02:06:51;;;;;;;89.20;30.00;;;;;;;-1.59;100.00;95899.75;1016444;29;20038;-67
2023/03/03 02:07:22;;;;;;;89.30;30.60;;;;;;;-1.66;100.00;95895.34;1010375;29;20048;-66
2023/03/03 02:07:52;;;;;;;90.97;30.40;;;;;;;-1.71;100.00;95892.53;1004372;29;20628;-67
2023/03/03 02:08:27;;;;;;;91.90;31.77;;;;;;;-1.69;100.00;95897.47;1008120;29;20853;-69
2023/03/03 02:09:26;;;;;;;100.80;31.34;;;;;;;-1.64;100.00;95902.88;1018545;29;20027;-67
2023/03/03 02:10:16;;;;;;;89.32;30.20;;;;;;;-1.64;100.00;95902.88;1017622;29;20032;-66
2023/03/03 02:10:46;;;;;;;95.26;29.22;;;;;;;-1.65;100.00;95898.72;1021361;29;20509;-67
2023/03/03 02:11:17;;;;;;;84.73;29.43;;;;;;;-1.64;100.00;95905.47;1021838;29;20030;-68
2023/03/03 02:11:49;;;;;;;82.80;29.33;;;;;;;-1.73;100.00;95891.91;1021897;28;20382;-67
2023/03/03 02:12:21;;;;;;;94.50;31.96;;;;;;;-1.66;100.00;95904.84;1022037;29;20663;-67
2023/03/03 02:12:53;;;;;;;88.95;29.80;;;;;;;-1.64;100.00;95907.22;1014031;29;20020;-68
2023/03/03 02:13:24;;;;;;;87.13;29.83;;;;;;;-1.61;100.00;95906.84;1022024;28;20023;-67
2023/03/03 02:13:54;;;;;;;92.60;29.30;;;;;;;-1.62;100.00;95895.78;1021965;29;20511;-68
2023/03/03 02:14:25;;;;;;;90.82;30.17;;;;;;;-1.66;100.00;95900.47;1022099;29;20035;-65
2023/03/03 02:14:55;;;;;;;96.33;31.70;;;;;;;-1.75;100.00;95883.56;1025811;28;20023;-66
2023/03/03 02:15:36;;;;;;;103.07;32.92;;;;;;;-1.66;100.00;95900.47;1022032;28;20026;-66
2023/03/03 02:16:06;;;;;;;101.10;31.17;;;;;;;-1.67;100.00;95887.81;1022127;29;20394;-67
2023/03/03 02:16:37;;;;;;;107.13;32.87;;;;;;;-1.62;100.00;95892.41;1018090;29;20035;-65
2023/03/03 02:17:08;;;;;;;91.66;32.36;;;;;;;-1.64;100.00;95892.59;1021842;28;20074;-65
2023/03/03 02:17:38;;;;;;;88.37;32.37;;;;;;;-1.63;100.00;95899.34;1022021;29;20453;-66
2023/03/03 02:18:13;;;;;;;89.03;30.55;;;;;;;-1.68;100.00;95892.16;1022058;29;20045;-66
2023/03/03 02:18:43;;;;;;;96.66;30.18;;;;;;;-1.64;100.00;95896.94;1021914;28;20102;-67
2023/03/03 02:19:31;;;;;;;89.50;30.43;;;;;;;-1.61;100.00;95896.56;1025226;28;20560;-66
2023/03/03 02:20:06;;;;;;;95.05;30.77;;;;;;;-1.59;100.00;95899.75;1022107;29;20030;-67
2023/03/03 02:21:05;;;;;;;94.72;31.50;;;;;;;-1.62;100.00;95900.13;1021891;28;20496;-66
2023/03/03 02:21:36;;;;;;;96.00;31.02;;;;;;;-1.61;100.00;95894.81;1021984;29;20039;-66
2023/03/03 02:22:06;;;;;;;94.57;30.53;;;;;;;-1.66;100.00;95879.13;1026583;28;20027;-66
2023/03/03 02:23:05;;;;;;;99.45;30.38;;;;;;;-1.57;100.00;95900.38;1019040;29;20032;-66
2023/03/03 02:24:07;;;;;;;99.82;31.33;;;;;;;-1.62;100.00;95889.84;1013801;29;20039;-68
2023/03/03 02:24:44;;;;;;;95.07;30.58;;;;;;;-1.53;100.00;95899.03;1014981;29;20552;-68
2023/03/03 02:25:49;;;;;;;89.68;30.17;;;;;;;-1.57;100.00;95892.66;1012375;29;20510;-67
2023/03/03 02:26:24;;;;;;;93.66;32.06;;;;;;;-1.66;100.00;95890.19;1016569;29;20079;-68
2023/03/03 02:26:54;;;;;;;92.32;28.54;;;;;;;-1.61;100.00;95894.00;1011472;29;20127;-67
2023/03/03 02:27:26;;;;;;;93.93;31.25;;;;;;;-1.60;100.00;95893.03;1012312;29;20020;-67
2023/03/03 02:27:56;;;;;;;98.40;31.34;;;;;;;-1.61;100.00;95891.41;1015702;29;20028;-67
2023/03/03 02:28:28;;;;;;;92.70;29.95;;;;;;;-1.67;100.00;95883.47;1012123;29;20348;-67
2023/03/03 02:28:59;;;;;;;92.15;29.73;;;;;;;-1.69;100.00;95885.41;1021607;28;20103;-67
2023/03/03 02:29:29;;;;;;;95.15;32.42;;;;;;;-1.58;100.00;95888.47;1022946;29;20054;-66
2023/03/03 02:30:14;;;;;;;106.63;33.10;;;;;;;-1.57;100.00;95887.53;1024053;28;20016;-66
2023/03/03 02:30:45;;;;;;;97.72;30.67;;;;;;;-1.63;100.00;95877.97;1027576;28;20078;-67
2023/03/03 02:31:17;;;;;;;96.75;31.98;;;;;;;-1.58;100.00;95883.34;1023663;29;20015;-66
2023/03/03 02:31:48;;;;;;;96.70;32.14;;;;;;;-1.57;100.00;95882.38;1023632;29;20042;-67
2023/03/03 02:32:18;;;;;;;94.03;29.75;;;;;;;-1.59;100.00;95868.88;1023442;28;20034;-67
2023/03/03 02:32:49;;;;;;;92.75;30.42;;;;;;;-1.57;100.00;95882.38;1023734;29;20041;-68